WetterOnline ( https://www.wetteronline.ch )

Wetter aktuell Düsseldorf

Aktuelles Wetter: Düsseldorf/Flughafen (41m)

6-stündlich | Neueste Meldungen
Ortszeit Temperatur Wetter
Sa, 22.06. 8:00 15.3° C wolkig
Sa, 22.06. 2:00 12.7° C bewölkt
Fr, 21.06. 20:00 16.5° C Regen
Fr, 21.06. 14:00 19.9° C Sprühregen
Fr, 21.06. 8:00 17.7° C wolkig
Fr, 21.06. 2:00 16.9° C wolkig
Do, 20.06. 20:00 19.2° C wolkig
Do, 20.06. 14:00 20.2° C bewölkt
Ortszeit Temperatur Wetter
Sa, 22.06. 8:00 15.3° C wolkig
Sa, 22.06. 7:50 15.3° C wolkig
Sa, 22.06. 7:40 15.2° C bewölkt
Sa, 22.06. 7:30 15.2° C wolkig
Sa, 22.06. 7:20 15.2° C wolkig
Sa, 22.06. 7:10 15.1° C leicht bewölkt
Sa, 22.06. 7:00 13.9° C wolkenlos
Sa, 22.06. 6:30 13.6° C fast wolkenlos
Sa, 22.06. 6:00 12.6° C leicht bewölkt
Sa, 22.06. 5:30 11.0° C wolkenlos
Sa, 22.06. 5:00 11.6° C wolkenlos
Sa, 22.06. 4:30 12.3° C wolkenlos
Ortszeit Relative Feuchte Sichtweite
Sa, 22.06. 8:00 85% 30 km
Sa, 22.06. 2:00 93% 19 km
Fr, 21.06. 20:00 95% 11 km
Fr, 21.06. 14:00 88% 10 km
Fr, 21.06. 8:00 89% 26 km
Fr, 21.06. 2:00 86% 50 km
Do, 20.06. 20:00 78% 55 km
Do, 20.06. 14:00 64% 40 km
Ortszeit Relative Feuchte Sichtweite
Sa, 22.06. 8:00 85% 30 km
Sa, 22.06. 7:50 85% -
Sa, 22.06. 7:40 83% -
Sa, 22.06. 7:30 83% 35 km
Sa, 22.06. 7:20 83% -
Sa, 22.06. 7:10 86% -
Sa, 22.06. 7:00 89% 27 km
Sa, 22.06. 6:30 88% 28 km
Sa, 22.06. 6:00 92% 30 km
Sa, 22.06. 5:30 95% 21 km
Sa, 22.06. 5:00 94% 21 km
Sa, 22.06. 4:30 92% 30 km
Ortszeit Niederschlagsmenge Niederschlagsart
Sa, 22.06. 8:00 3 l/m2 in 12 Std. -
Sa, 22.06. 2:00 3 l/m2 in 6 Std. Regen
Fr, 21.06. 20:00 4 l/m2 in 12 Std. Regen
Fr, 21.06. 14:00 0.7 l/m2 in 6 Std. Regen
Fr, 21.06. 8:00 0.1 l/m2 in 12 Std. Regen
Fr, 21.06. 2:00 0.1 l/m2 in 6 Std. Regen
Do, 20.06. 20:00 2 l/m2 in 12 Std. Regen
Do, 20.06. 14:00 0.1 l/m2 in 6 Std. Regen
Ortszeit Niederschlagsmenge Niederschlagsart
Sa, 22.06. 8:00 0.0 l/m2 in 1 Std. -
Sa, 22.06. 7:50 keine Meldung -
Sa, 22.06. 7:40 keine Meldung -
Sa, 22.06. 7:30 0.0 l/m2 in 30 Min -
Sa, 22.06. 7:20 keine Meldung -
Sa, 22.06. 7:10 keine Meldung -
Sa, 22.06. 7:00 0.0 l/m2 in 1 Std. -
Sa, 22.06. 6:30 0.0 l/m2 in 30 Min -
Sa, 22.06. 6:00 0.0 l/m2 in 1 Std. -
Sa, 22.06. 5:30 0.0 l/m2 in 30 Min -
Sa, 22.06. 5:00 0.0 l/m2 in 1 Std. -
Sa, 22.06. 4:30 0.0 l/m2 in 30 Min -
Ortszeit Stärke Spitze Richtung
km/h Bft. km/h Grad Sektor
Sa, 22.06. 8:00 14 3 25 180° S
Sa, 22.06. 2:00 11 2 43 210° SW
Fr, 21.06. 20:00 22 4 36 270° W
Fr, 21.06. 14:00 6 1 17 210° SW
Fr, 21.06. 8:00 7 2 14 250° W
Fr, 21.06. 2:00 9 2 15 20° N
Do, 20.06. 20:00 11 2 29 10° N
Do, 20.06. 14:00 19 3 30 40° NO
Ortszeit Stärke Spitze Richtung
km/h Bft. km/h Grad Sektor
Sa, 22.06. 8:00 14 3 25 180° S
Sa, 22.06. 7:50 14 3 - 180° S
Sa, 22.06. 7:40 15 3 - 180° S
Sa, 22.06. 7:30 14 3 25 200° S
Sa, 22.06. 7:20 14 3 - 200° S
Sa, 22.06. 7:10 14 3 - 190° S
Sa, 22.06. 7:00 13 3 19 170° S
Sa, 22.06. 6:30 14 3 18 170° S
Sa, 22.06. 6:00 11 2 18 180° S
Sa, 22.06. 5:30 11 2 14 190° S
Sa, 22.06. 5:00 11 2 18 170° S
Sa, 22.06. 4:30 13 3 17 180° S
Ortszeit Untergrenze Bedeckung Gattung
total tief tief mittel hoch
Sa, 22.06. 8:00 1500 m 7/8 4/8 - - -
Sa, 22.06. 2:00 1230 m 8/8 6/8 - - -
Fr, 21.06. 20:00 180 m 8/8 8/8 - - -
Fr, 21.06. 14:00 570 m 8/8 8/8 - - -
Fr, 21.06. 8:00 270 m 8/8 1/8 - - -
Fr, 21.06. 2:00 960 m 8/8 1/8 - - -
Do, 20.06. 20:00 1080 m 8/8 3/8 - - -
Do, 20.06. 14:00 2700 m 8/8 7/8 - - -
Ortszeit Bedeckungsgrad in Achtel und Wolkenuntergrenze
Sa, 22.06. 8:00 4(1500m) 7(3300m) 7(4500m)
Sa, 22.06. 7:50 4(1500m) 7(3300m) 7(4500m)
Sa, 22.06. 7:40 7
Sa, 22.06. 7:30 2(1320m) 4(1500m) 6(1800m)
Sa, 22.06. 7:20 2(1320m) 4(1500m) 6(1800m)
Sa, 22.06. 7:10 4
Sa, 22.06. 7:00 keine Wolken
Sa, 22.06. 6:30 1(1800m)
Sa, 22.06. 6:00 1(1440m) 4(2100m)
Sa, 22.06. 5:30 keine Wolken
Sa, 22.06. 5:00 keine Wolken
Sa, 22.06. 4:30 keine Wolken
Ortszeit Luftdruck NN (hPa) Tendenz (hPa in 3 Std.)
Sa, 22.06. 8:00 1013 - 0,1
Sa, 22.06. 2:00 1013 + 0,1
Fr, 21.06. 20:00 1011 + 1,0
Fr, 21.06. 14:00 1011 - 1,2
Fr, 21.06. 8:00 1013 - 0,3
Fr, 21.06. 2:00 1015 - 0,8
Do, 20.06. 20:00 1016 - 1,3
Do, 20.06. 14:00 1018 - 1,8
Ortszeit Luftdruck NN (hPa) Tendenz (hPa in 3 Std.)
Sa, 22.06. 8:00 1013 - 0,1
Sa, 22.06. 7:50 1013 keine Meldung
Sa, 22.06. 7:40 1013 keine Meldung
Sa, 22.06. 7:30 1013 0,0
Sa, 22.06. 7:20 1013 keine Meldung
Sa, 22.06. 7:10 1013 keine Meldung
Sa, 22.06. 7:00 1013 - 0,1
Sa, 22.06. 6:30 1013 - 0,5
Sa, 22.06. 6:00 1013 - 0,8
Sa, 22.06. 5:30 1013 - 0,6
Sa, 22.06. 5:00 1013 - 0,6
Sa, 22.06. 4:30 1013 - 0,8
Ortszeit Schneehöhe (cm)
Sa, 22.06. 8:00 -
Sa, 22.06. 2:00 -
Fr, 21.06. 20:00 -
Fr, 21.06. 14:00 -
Fr, 21.06. 8:00 -
Fr, 21.06. 2:00 -
Do, 20.06. 20:00 -
Do, 20.06. 14:00 -
Ortszeit Schneehöhe (cm)
Sa, 22.06. 8:00 -
Sa, 22.06. 7:50 -
Sa, 22.06. 7:40 -
Sa, 22.06. 7:30 -
Sa, 22.06. 7:20 -
Sa, 22.06. 7:10 -
Sa, 22.06. 7:00 -
Sa, 22.06. 6:30 -
Sa, 22.06. 6:00 -
Sa, 22.06. 5:30 -
Sa, 22.06. 5:00 -
Sa, 22.06. 4:30 -
Link zu dieser Seite / Seite empfehlen

Das Wetter in ...